sensor_id;sensor_type;location;lat;lon;timestamp;pressure;altitude;pressure_sealevel;temperature
20092;BMP180;10205;49.678;6.560;2024-02-26T00:00:42;97837.00;;;12.10
20092;BMP180;10205;49.678;6.560;2024-02-26T00:03:10;97834.00;;;12.10
20092;BMP180;10205;49.678;6.560;2024-02-26T00:05:37;97831.00;;;12.10
20092;BMP180;10205;49.678;6.560;2024-02-26T00:08:05;97823.00;;;12.10
20092;BMP180;10205;49.678;6.560;2024-02-26T00:10:33;97839.00;;;12.10
20092;BMP180;10205;49.678;6.560;2024-02-26T00:13:00;97846.00;;;12.00
20092;BMP180;10205;49.678;6.560;2024-02-26T00:15:27;97843.00;;;12.00
20092;BMP180;10205;49.678;6.560;2024-02-26T00:17:54;97847.00;;;12.00
20092;BMP180;10205;49.678;6.560;2024-02-26T00:20:23;97830.00;;;12.00
20092;BMP180;10205;49.678;6.560;2024-02-26T00:22:50;97843.00;;;12.00
20092;BMP180;10205;49.678;6.560;2024-02-26T00:25:17;97834.00;;;11.90
20092;BMP180;10205;49.678;6.560;2024-02-26T00:27:44;97839.00;;;12.00
20092;BMP180;10205;49.678;6.560;2024-02-26T00:30:11;97835.00;;;11.90
20092;BMP180;10205;49.678;6.560;2024-02-26T00:32:39;97837.00;;;11.90
20092;BMP180;10205;49.678;6.560;2024-02-26T00:35:07;97834.00;;;11.90
20092;BMP180;10205;49.678;6.560;2024-02-26T00:37:36;97835.00;;;11.90
20092;BMP180;10205;49.678;6.560;2024-02-26T00:40:05;97855.00;;;11.90
20092;BMP180;10205;49.678;6.560;2024-02-26T00:42:32;97844.00;;;11.90
20092;BMP180;10205;49.678;6.560;2024-02-26T00:44:59;97841.00;;;11.80
20092;BMP180;10205;49.678;6.560;2024-02-26T00:47:26;97844.00;;;11.80
20092;BMP180;10205;49.678;6.560;2024-02-26T00:49:53;97845.00;;;11.80
20092;BMP180;10205;49.678;6.560;2024-02-26T00:52:21;97846.00;;;11.80
20092;BMP180;10205;49.678;6.560;2024-02-26T00:54:49;97836.00;;;11.80
20092;BMP180;10205;49.678;6.560;2024-02-26T00:57:16;97844.00;;;11.80
20092;BMP180;10205;49.678;6.560;2024-02-26T00:59:43;97837.00;;;11.80
20092;BMP180;10205;49.678;6.560;2024-02-26T01:02:10;97839.00;;;11.80
20092;BMP180;10205;49.678;6.560;2024-02-26T01:04:37;97851.00;;;11.80
20092;BMP180;10205;49.678;6.560;2024-02-26T01:07:04;97852.00;;;11.80
20092;BMP180;10205;49.678;6.560;2024-02-26T01:09:31;97842.00;;;11.80
20092;BMP180;10205;49.678;6.560;2024-02-26T01:12:00;97840.00;;;11.80
20092;BMP180;10205;49.678;6.560;2024-02-26T01:14:28;97852.00;;;11.80
20092;BMP180;10205;49.678;6.560;2024-02-26T01:16:55;97844.00;;;11.80
20092;BMP180;10205;49.678;6.560;2024-02-26T01:19:22;97840.00;;;11.80
20092;BMP180;10205;49.678;6.560;2024-02-26T01:21:49;97835.00;;;11.80
20092;BMP180;10205;49.678;6.560;2024-02-26T01:24:16;97847.00;;;11.80
20092;BMP180;10205;49.678;6.560;2024-02-26T01:26:44;97838.00;;;11.80
20092;BMP180;10205;49.678;6.560;2024-02-26T01:29:12;97836.00;;;11.70
20092;BMP180;10205;49.678;6.560;2024-02-26T01:31:39;97843.00;;;11.70
20092;BMP180;10205;49.678;6.560;2024-02-26T01:34:06;97833.00;;;11.70
20092;BMP180;10205;49.678;6.560;2024-02-26T01:36:33;97843.00;;;11.70
20092;BMP180;10205;49.678;6.560;2024-02-26T01:39:01;97843.00;;;11.70
20092;BMP180;10205;49.678;6.560;2024-02-26T01:41:29;97846.00;;;11.70
20092;BMP180;10205;49.678;6.560;2024-02-26T01:43:56;97843.00;;;11.70
20092;BMP180;10205;49.678;6.560;2024-02-26T01:46:24;97844.00;;;11.70
20092;BMP180;10205;49.678;6.560;2024-02-26T01:48:52;97843.00;;;11.70
20092;BMP180;10205;49.678;6.560;2024-02-26T01:51:19;97835.00;;;11.70
20092;BMP180;10205;49.678;6.560;2024-02-26T01:53:47;97832.00;;;11.70
20092;BMP180;10205;49.678;6.560;2024-02-26T01:56:16;97840.00;;;11.60
20092;BMP180;10205;49.678;6.560;2024-02-26T01:58:44;97841.00;;;11.60
20092;BMP180;10205;49.678;6.560;2024-02-26T02:01:12;97830.00;;;11.60
20092;BMP180;10205;49.678;6.560;2024-02-26T02:03:41;97824.00;;;11.60
20092;BMP180;10205;49.678;6.560;2024-02-26T02:06:08;97835.00;;;11.60
20092;BMP180;10205;49.678;6.560;2024-02-26T02:08:36;97832.00;;;11.60
20092;BMP180;10205;49.678;6.560;2024-02-26T02:11:04;97817.00;;;11.60
20092;BMP180;10205;49.678;6.560;2024-02-26T02:13:31;97822.00;;;11.60
20092;BMP180;10205;49.678;6.560;2024-02-26T02:15:58;97808.00;;;11.60
20092;BMP180;10205;49.678;6.560;2024-02-26T02:18:25;97805.00;;;11.70
20092;BMP180;10205;49.678;6.560;2024-02-26T02:20:55;97797.00;;;11.60
20092;BMP180;10205;49.678;6.560;2024-02-26T02:23:25;97800.00;;;11.60
20092;BMP180;10205;49.678;6.560;2024-02-26T02:25:52;97794.00;;;11.60
20092;BMP180;10205;49.678;6.560;2024-02-26T02:28:21;97795.00;;;11.60
20092;BMP180;10205;49.678;6.560;2024-02-26T02:30:49;97787.00;;;11.60
20092;BMP180;10205;49.678;6.560;2024-02-26T02:33:17;97783.00;;;11.60
20092;BMP180;10205;49.678;6.560;2024-02-26T02:35:44;97786.00;;;11.60
20092;BMP180;10205;49.678;6.560;2024-02-26T02:38:12;97778.00;;;11.60
20092;BMP180;10205;49.678;6.560;2024-02-26T02:40:39;97782.00;;;11.60
20092;BMP180;10205;49.678;6.560;2024-02-26T02:43:07;97786.00;;;11.60
20092;BMP180;10205;49.678;6.560;2024-02-26T02:45:34;97788.00;;;11.60
20092;BMP180;10205;49.678;6.560;2024-02-26T02:48:01;97780.00;;;11.50
20092;BMP180;10205;49.678;6.560;2024-02-26T02:50:28;97787.00;;;11.50
20092;BMP180;10205;49.678;6.560;2024-02-26T02:52:55;97780.00;;;11.50
20092;BMP180;10205;49.678;6.560;2024-02-26T02:55:23;97788.00;;;11.50
20092;BMP180;10205;49.678;6.560;2024-02-26T02:57:51;97794.00;;;11.40
20092;BMP180;10205;49.678;6.560;2024-02-26T03:00:18;97781.00;;;11.40
20092;BMP180;10205;49.678;6.560;2024-02-26T03:02:45;97782.00;;;11.40
20092;BMP180;10205;49.678;6.560;2024-02-26T03:05:12;97780.00;;;11.40
20092;BMP180;10205;49.678;6.560;2024-02-26T03:07:39;97793.00;;;11.40
20092;BMP180;10205;49.678;6.560;2024-02-26T03:10:07;97794.00;;;11.40
20092;BMP180;10205;49.678;6.560;2024-02-26T03:12:36;97792.00;;;11.40
20092;BMP180;10205;49.678;6.560;2024-02-26T03:15:03;97785.00;;;11.40
20092;BMP180;10205;49.678;6.560;2024-02-26T03:17:30;97776.00;;;11.50
20092;BMP180;10205;49.678;6.560;2024-02-26T03:19:57;97786.00;;;11.50
20092;BMP180;10205;49.678;6.560;2024-02-26T03:22:24;97790.00;;;11.50
20092;BMP180;10205;49.678;6.560;2024-02-26T03:24:51;97782.00;;;11.50
20092;BMP180;10205;49.678;6.560;2024-02-26T03:27:19;97787.00;;;11.50
20092;BMP180;10205;49.678;6.560;2024-02-26T03:29:47;97784.00;;;11.50
20092;BMP180;10205;49.678;6.560;2024-02-26T03:32:14;97774.00;;;11.40
20092;BMP180;10205;49.678;6.560;2024-02-26T03:34:41;97768.00;;;11.40
20092;BMP180;10205;49.678;6.560;2024-02-26T03:37:08;97772.00;;;11.40
20092;BMP180;10205;49.678;6.560;2024-02-26T03:39:36;97782.00;;;11.40
20092;BMP180;10205;49.678;6.560;2024-02-26T03:42:04;97779.00;;;11.30
20092;BMP180;10205;49.678;6.560;2024-02-26T03:44:31;97778.00;;;11.30
20092;BMP180;10205;49.678;6.560;2024-02-26T03:46:59;97780.00;;;11.30
20092;BMP180;10205;49.678;6.560;2024-02-26T03:49:26;97782.00;;;11.30
20092;BMP180;10205;49.678;6.560;2024-02-26T03:51:53;97787.00;;;11.30
20092;BMP180;10205;49.678;6.560;2024-02-26T03:54:20;97782.00;;;11.30
20092;BMP180;10205;49.678;6.560;2024-02-26T03:56:47;97784.00;;;11.30
20092;BMP180;10205;49.678;6.560;2024-02-26T03:59:14;97791.00;;;11.30
20092;BMP180;10205;49.678;6.560;2024-02-26T04:01:45;97786.00;;;11.30
20092;BMP180;10205;49.678;6.560;2024-02-26T04:04:14;97796.00;;;11.20
20092;BMP180;10205;49.678;6.560;2024-02-26T04:06:44;97797.00;;;11.20
20092;BMP180;10205;49.678;6.560;2024-02-26T04:09:13;97799.00;;;11.20
20092;BMP180;10205;49.678;6.560;2024-02-26T04:11:41;97795.00;;;11.30
20092;BMP180;10205;49.678;6.560;2024-02-26T04:14:09;97800.00;;;11.30
20092;BMP180;10205;49.678;6.560;2024-02-26T04:16:38;97804.00;;;11.30
20092;BMP180;10205;49.678;6.560;2024-02-26T04:19:05;97801.00;;;11.30
20092;BMP180;10205;49.678;6.560;2024-02-26T04:21:33;97804.00;;;11.30
20092;BMP180;10205;49.678;6.560;2024-02-26T04:24:01;97809.00;;;11.30
20092;BMP180;10205;49.678;6.560;2024-02-26T04:26:28;97801.00;;;11.30
20092;BMP180;10205;49.678;6.560;2024-02-26T04:28:56;97828.00;;;11.30
20092;BMP180;10205;49.678;6.560;2024-02-26T04:31:23;97808.00;;;11.30
20092;BMP180;10205;49.678;6.560;2024-02-26T04:33:50;97809.00;;;11.30
20092;BMP180;10205;49.678;6.560;2024-02-26T04:36:17;97807.00;;;11.30
20092;BMP180;10205;49.678;6.560;2024-02-26T04:38:46;97814.00;;;11.30
20092;BMP180;10205;49.678;6.560;2024-02-26T04:41:13;97818.00;;;11.30
20092;BMP180;10205;49.678;6.560;2024-02-26T04:43:40;97811.00;;;11.30
20092;BMP180;10205;49.678;6.560;2024-02-26T04:46:08;97812.00;;;11.30
20092;BMP180;10205;49.678;6.560;2024-02-26T04:48:35;97821.00;;;11.30
20092;BMP180;10205;49.678;6.560;2024-02-26T04:51:03;97820.00;;;11.30
20092;BMP180;10205;49.678;6.560;2024-02-26T04:53:30;97833.00;;;11.30
20092;BMP180;10205;49.678;6.560;2024-02-26T04:55:59;97825.00;;;11.30
20092;BMP180;10205;49.678;6.560;2024-02-26T04:58:26;97820.00;;;11.30
20092;BMP180;10205;49.678;6.560;2024-02-26T05:00:53;97826.00;;;11.30
20092;BMP180;10205;49.678;6.560;2024-02-26T05:03:20;97825.00;;;11.30
20092;BMP180;10205;49.678;6.560;2024-02-26T05:05:47;97831.00;;;11.30
20092;BMP180;10205;49.678;6.560;2024-02-26T05:08:14;97828.00;;;11.20
20092;BMP180;10205;49.678;6.560;2024-02-26T05:10:41;97826.00;;;11.20
20092;BMP180;10205;49.678;6.560;2024-02-26T05:13:10;97828.00;;;11.20
20092;BMP180;10205;49.678;6.560;2024-02-26T05:15:37;97829.00;;;11.20
20092;BMP180;10205;49.678;6.560;2024-02-26T05:18:05;97830.00;;;11.20
20092;BMP180;10205;49.678;6.560;2024-02-26T05:20:33;97829.00;;;11.20
20092;BMP180;10205;49.678;6.560;2024-02-26T05:23:01;97832.00;;;11.20
20092;BMP180;10205;49.678;6.560;2024-02-26T05:25:29;97829.00;;;11.20
20092;BMP180;10205;49.678;6.560;2024-02-26T05:27:56;97833.00;;;11.20
20092;BMP180;10205;49.678;6.560;2024-02-26T05:30:24;97827.00;;;11.20
20092;BMP180;10205;49.678;6.560;2024-02-26T05:32:52;97839.00;;;11.20
20092;BMP180;10205;49.678;6.560;2024-02-26T05:35:19;97833.00;;;11.20
20092;BMP180;10205;49.678;6.560;2024-02-26T05:37:47;97839.00;;;11.20
20092;BMP180;10205;49.678;6.560;2024-02-26T05:40:14;97848.00;;;11.20
20092;BMP180;10205;49.678;6.560;2024-02-26T05:42:41;97839.00;;;11.20
20092;BMP180;10205;49.678;6.560;2024-02-26T05:45:10;97849.00;;;11.20
20092;BMP180;10205;49.678;6.560;2024-02-26T05:47:39;97852.00;;;11.20
20092;BMP180;10205;49.678;6.560;2024-02-26T05:50:09;97851.00;;;11.20
20092;BMP180;10205;49.678;6.560;2024-02-26T05:52:36;97849.00;;;11.20
20092;BMP180;10205;49.678;6.560;2024-02-26T05:55:05;97842.00;;;11.30
20092;BMP180;10205;49.678;6.560;2024-02-26T05:57:34;97852.00;;;11.30
20092;BMP180;10205;49.678;6.560;2024-02-26T06:00:02;97852.00;;;11.30
20092;BMP180;10205;49.678;6.560;2024-02-26T06:02:30;97859.00;;;11.30
20092;BMP180;10205;49.678;6.560;2024-02-26T06:04:58;97855.00;;;11.30
20092;BMP180;10205;49.678;6.560;2024-02-26T06:07:25;97852.00;;;11.30
20092;BMP180;10205;49.678;6.560;2024-02-26T06:09:52;97868.00;;;11.30
20092;BMP180;10205;49.678;6.560;2024-02-26T06:12:19;97874.00;;;11.30
20092;BMP180;10205;49.678;6.560;2024-02-26T06:14:47;97869.00;;;11.20
20092;BMP180;10205;49.678;6.560;2024-02-26T06:17:14;97872.00;;;11.20
20092;BMP180;10205;49.678;6.560;2024-02-26T06:19:41;97882.00;;;11.20
20092;BMP180;10205;49.678;6.560;2024-02-26T06:22:09;97887.00;;;11.20
20092;BMP180;10205;49.678;6.560;2024-02-26T06:24:36;97886.00;;;11.20
20092;BMP180;10205;49.678;6.560;2024-02-26T06:27:04;97886.00;;;11.20
20092;BMP180;10205;49.678;6.560;2024-02-26T06:29:31;97890.00;;;11.20
20092;BMP180;10205;49.678;6.560;2024-02-26T06:31:58;97884.00;;;11.20
20092;BMP180;10205;49.678;6.560;2024-02-26T06:34:25;97902.00;;;11.30
20092;BMP180;10205;49.678;6.560;2024-02-26T06:36:52;97890.00;;;11.30
20092;BMP180;10205;49.678;6.560;2024-02-26T06:39:20;97906.00;;;11.30
20092;BMP180;10205;49.678;6.560;2024-02-26T06:41:47;97904.00;;;11.30
20092;BMP180;10205;49.678;6.560;2024-02-26T06:44:14;97905.00;;;11.30
20092;BMP180;10205;49.678;6.560;2024-02-26T06:46:41;97913.00;;;11.30
20092;BMP180;10205;49.678;6.560;2024-02-26T06:49:08;97918.00;;;11.30
20092;BMP180;10205;49.678;6.560;2024-02-26T06:51:35;97914.00;;;11.30
20092;BMP180;10205;49.678;6.560;2024-02-26T06:54:02;97929.00;;;11.30
20092;BMP180;10205;49.678;6.560;2024-02-26T06:56:31;97927.00;;;11.30
20092;BMP180;10205;49.678;6.560;2024-02-26T06:58:58;97929.00;;;11.30
20092;BMP180;10205;49.678;6.560;2024-02-26T07:01:25;97938.00;;;11.30
20092;BMP180;10205;49.678;6.560;2024-02-26T07:03:52;97934.00;;;11.30
20092;BMP180;10205;49.678;6.560;2024-02-26T07:06:19;97924.00;;;11.30
20092;BMP180;10205;49.678;6.560;2024-02-26T07:08:46;97932.00;;;11.30
20092;BMP180;10205;49.678;6.560;2024-02-26T07:11:13;97932.00;;;11.20
20092;BMP180;10205;49.678;6.560;2024-02-26T07:13:42;97935.00;;;11.20
20092;BMP180;10205;49.678;6.560;2024-02-26T07:16:09;97940.00;;;11.30
20092;BMP180;10205;49.678;6.560;2024-02-26T07:18:37;97958.00;;;11.30
20092;BMP180;10205;49.678;6.560;2024-02-26T07:21:04;97961.00;;;11.20
20092;BMP180;10205;49.678;6.560;2024-02-26T07:23:32;97963.00;;;11.30
20092;BMP180;10205;49.678;6.560;2024-02-26T07:25:59;97956.00;;;11.30
20092;BMP180;10205;49.678;6.560;2024-02-26T07:28:26;97981.00;;;11.30
20092;BMP180;10205;49.678;6.560;2024-02-26T07:30:55;97981.00;;;11.30
20092;BMP180;10205;49.678;6.560;2024-02-26T07:33:22;97978.00;;;11.30
20092;BMP180;10205;49.678;6.560;2024-02-26T07:35:49;97981.00;;;11.30
20092;BMP180;10205;49.678;6.560;2024-02-26T07:38:16;97988.00;;;11.30
20092;BMP180;10205;49.678;6.560;2024-02-26T07:40:43;97991.00;;;11.30
20092;BMP180;10205;49.678;6.560;2024-02-26T07:43:10;97993.00;;;11.20
20092;BMP180;10205;49.678;6.560;2024-02-26T07:45:38;97996.00;;;11.30
20092;BMP180;10205;49.678;6.560;2024-02-26T07:48:07;98000.00;;;11.30
20092;BMP180;10205;49.678;6.560;2024-02-26T07:50:34;98013.00;;;11.30
20092;BMP180;10205;49.678;6.560;2024-02-26T07:53:02;98031.00;;;11.30
20092;BMP180;10205;49.678;6.560;2024-02-26T07:55:29;98010.00;;;11.30
20092;BMP180;10205;49.678;6.560;2024-02-26T07:57:56;98013.00;;;11.30
20092;BMP180;10205;49.678;6.560;2024-02-26T08:00:23;98024.00;;;11.30
20092;BMP180;10205;49.678;6.560;2024-02-26T08:02:50;98014.00;;;11.30
20092;BMP180;10205;49.678;6.560;2024-02-26T08:05:19;98005.00;;;11.30
20092;BMP180;10205;49.678;6.560;2024-02-26T08:07:46;98015.00;;;11.30
20092;BMP180;10205;49.678;6.560;2024-02-26T08:10:13;98022.00;;;11.30
20092;BMP180;10205;49.678;6.560;2024-02-26T08:12:41;98036.00;;;11.40
20092;BMP180;10205;49.678;6.560;2024-02-26T08:15:08;98010.00;;;11.40
20092;BMP180;10205;49.678;6.560;2024-02-26T08:17:37;98010.00;;;11.40
20092;BMP180;10205;49.678;6.560;2024-02-26T08:20:05;98023.00;;;11.40
20092;BMP180;10205;49.678;6.560;2024-02-26T08:22:34;98024.00;;;11.40
20092;BMP180;10205;49.678;6.560;2024-02-26T08:25:01;98028.00;;;11.40
20092;BMP180;10205;49.678;6.560;2024-02-26T08:27:32;98024.00;;;11.40
20092;BMP180;10205;49.678;6.560;2024-02-26T08:29:59;98032.00;;;11.40
20092;BMP180;10205;49.678;6.560;2024-02-26T08:32:27;98029.00;;;11.40
20092;BMP180;10205;49.678;6.560;2024-02-26T08:34:56;98023.00;;;11.40
20092;BMP180;10205;49.678;6.560;2024-02-26T08:37:23;98023.00;;;11.50
20092;BMP180;10205;49.678;6.560;2024-02-26T08:39:51;98030.00;;;11.50
20092;BMP180;10205;49.678;6.560;2024-02-26T08:42:18;98043.00;;;11.50
20092;BMP180;10205;49.678;6.560;2024-02-26T08:44:45;98046.00;;;11.50
20092;BMP180;10205;49.678;6.560;2024-02-26T08:47:13;98052.00;;;11.60
20092;BMP180;10205;49.678;6.560;2024-02-26T08:49:43;98055.00;;;11.60
20092;BMP180;10205;49.678;6.560;2024-02-26T08:52:11;98051.00;;;11.60
20092;BMP180;10205;49.678;6.560;2024-02-26T08:54:38;98058.00;;;11.60
20092;BMP180;10205;49.678;6.560;2024-02-26T08:57:07;98059.00;;;11.60
20092;BMP180;10205;49.678;6.560;2024-02-26T08:59:35;98071.00;;;11.60
20092;BMP180;10205;49.678;6.560;2024-02-26T09:02:02;98052.00;;;11.60
20092;BMP180;10205;49.678;6.560;2024-02-26T09:04:29;98062.00;;;11.60
20092;BMP180;10205;49.678;6.560;2024-02-26T09:06:57;98062.00;;;11.60
20092;BMP180;10205;49.678;6.560;2024-02-26T09:09:24;98068.00;;;11.70
20092;BMP180;10205;49.678;6.560;2024-02-26T09:11:52;98065.00;;;11.70
20092;BMP180;10205;49.678;6.560;2024-02-26T09:14:22;98068.00;;;11.70
20092;BMP180;10205;49.678;6.560;2024-02-26T09:16:49;98074.00;;;11.70
20092;BMP180;10205;49.678;6.560;2024-02-26T09:19:17;98070.00;;;11.70
20092;BMP180;10205;49.678;6.560;2024-02-26T09:21:44;98073.00;;;11.70
20092;BMP180;10205;49.678;6.560;2024-02-26T09:24:12;98070.00;;;11.70
20092;BMP180;10205;49.678;6.560;2024-02-26T09:26:39;98071.00;;;11.70
20092;BMP180;10205;49.678;6.560;2024-02-26T09:29:06;98083.00;;;11.70
20092;BMP180;10205;49.678;6.560;2024-02-26T09:31:35;98084.00;;;11.70
20092;BMP180;10205;49.678;6.560;2024-02-26T09:34:02;98084.00;;;11.70
20092;BMP180;10205;49.678;6.560;2024-02-26T09:36:30;98089.00;;;11.80
20092;BMP180;10205;49.678;6.560;2024-02-26T09:38:57;98091.00;;;11.80
20092;BMP180;10205;49.678;6.560;2024-02-26T09:41:28;98095.00;;;11.80
20092;BMP180;10205;49.678;6.560;2024-02-26T09:43:57;98103.00;;;11.80
20092;BMP180;10205;49.678;6.560;2024-02-26T09:46:25;98100.00;;;11.90
20092;BMP180;10205;49.678;6.560;2024-02-26T09:48:54;98109.00;;;11.90
20092;BMP180;10205;49.678;6.560;2024-02-26T09:51:23;98109.00;;;11.90
20092;BMP180;10205;49.678;6.560;2024-02-26T09:53:52;98117.00;;;11.90
20092;BMP180;10205;49.678;6.560;2024-02-26T09:56:20;98118.00;;;12.00
20092;BMP180;10205;49.678;6.560;2024-02-26T09:58:50;98126.00;;;12.00
20092;BMP180;10205;49.678;6.560;2024-02-26T10:01:20;98122.00;;;12.00
20092;BMP180;10205;49.678;6.560;2024-02-26T10:03:56;98133.00;;;12.00
20092;BMP180;10205;49.678;6.560;2024-02-26T10:06:26;98123.00;;;12.00
20092;BMP180;10205;49.678;6.560;2024-02-26T10:08:54;98124.00;;;12.00
20092;BMP180;10205;49.678;6.560;2024-02-26T10:11:24;98135.00;;;12.00
20092;BMP180;10205;49.678;6.560;2024-02-26T10:13:51;98132.00;;;12.00
20092;BMP180;10205;49.678;6.560;2024-02-26T10:16:19;98139.00;;;12.00
20092;BMP180;10205;49.678;6.560;2024-02-26T10:18:47;98149.00;;;12.00
20092;BMP180;10205;49.678;6.560;2024-02-26T10:21:18;98155.00;;;12.00
20092;BMP180;10205;49.678;6.560;2024-02-26T10:23:47;98159.00;;;12.00
20092;BMP180;10205;49.678;6.560;2024-02-26T10:26:15;98154.00;;;12.10
20092;BMP180;10205;49.678;6.560;2024-02-26T10:28:43;98148.00;;;12.10
20092;BMP180;10205;49.678;6.560;2024-02-26T10:31:13;98156.00;;;12.10
20092;BMP180;10205;49.678;6.560;2024-02-26T10:33:43;98150.00;;;12.10
20092;BMP180;10205;49.678;6.560;2024-02-26T10:36:10;98157.00;;;12.20
20092;BMP180;10205;49.678;6.560;2024-02-26T10:38:39;98147.00;;;12.20
20092;BMP180;10205;49.678;6.560;2024-02-26T10:41:07;98149.00;;;12.30
20092;BMP180;10205;49.678;6.560;2024-02-26T10:43:35;98153.00;;;12.30
20092;BMP180;10205;49.678;6.560;2024-02-26T10:46:02;98149.00;;;12.30
20092;BMP180;10205;49.678;6.560;2024-02-26T10:48:29;98146.00;;;12.40
20092;BMP180;10205;49.678;6.560;2024-02-26T10:50:56;98152.00;;;12.40
20092;BMP180;10205;49.678;6.560;2024-02-26T10:53:29;98145.00;;;12.40
20092;BMP180;10205;49.678;6.560;2024-02-26T10:56:04;98155.00;;;12.40
20092;BMP180;10205;49.678;6.560;2024-02-26T10:58:32;98169.00;;;12.50
20092;BMP180;10205;49.678;6.560;2024-02-26T11:00:59;98167.00;;;12.50
20092;BMP180;10205;49.678;6.560;2024-02-26T11:03:28;98162.00;;;12.60
20092;BMP180;10205;49.678;6.560;2024-02-26T11:05:58;98165.00;;;12.70
20092;BMP180;10205;49.678;6.560;2024-02-26T11:08:28;98173.00;;;12.70
20092;BMP180;10205;49.678;6.560;2024-02-26T11:10:57;98158.00;;;12.70
20092;BMP180;10205;49.678;6.560;2024-02-26T11:13:28;98188.00;;;12.70
20092;BMP180;10205;49.678;6.560;2024-02-26T11:15:58;98187.00;;;12.70
20092;BMP180;10205;49.678;6.560;2024-02-26T11:18:27;98196.00;;;12.80
20092;BMP180;10205;49.678;6.560;2024-02-26T11:20:55;98204.00;;;12.90
20092;BMP180;10205;49.678;6.560;2024-02-26T11:23:23;98203.00;;;12.90
20092;BMP180;10205;49.678;6.560;2024-02-26T11:25:52;98197.00;;;13.00
20092;BMP180;10205;49.678;6.560;2024-02-26T11:28:24;98203.00;;;13.10
20092;BMP180;10205;49.678;6.560;2024-02-26T11:30:52;98202.00;;;13.10
20092;BMP180;10205;49.678;6.560;2024-02-26T11:33:20;98218.00;;;13.20
20092;BMP180;10205;49.678;6.560;2024-02-26T11:35:50;98205.00;;;13.20
20092;BMP180;10205;49.678;6.560;2024-02-26T11:38:21;98205.00;;;13.20
20092;BMP180;10205;49.678;6.560;2024-02-26T11:40:50;98206.00;;;13.20
20092;BMP180;10205;49.678;6.560;2024-02-26T11:43:17;98201.00;;;13.30
20092;BMP180;10205;49.678;6.560;2024-02-26T11:45:52;98207.00;;;13.30
20092;BMP180;10205;49.678;6.560;2024-02-26T11:48:23;98206.00;;;13.40
20092;BMP180;10205;49.678;6.560;2024-02-26T11:50:52;98201.00;;;13.40
20092;BMP180;10205;49.678;6.560;2024-02-26T11:53:24;98192.00;;;13.40
20092;BMP180;10205;49.678;6.560;2024-02-26T11:56:22;98194.00;;;13.40
20092;BMP180;10205;49.678;6.560;2024-02-26T11:58:57;98182.00;;;13.40
20092;BMP180;10205;49.678;6.560;2024-02-26T12:01:43;98184.00;;;13.40
20092;BMP180;10205;49.678;6.560;2024-02-26T12:04:15;98195.00;;;13.50
20092;BMP180;10205;49.678;6.560;2024-02-26T12:06:45;98185.00;;;13.50
20092;BMP180;10205;49.678;6.560;2024-02-26T12:09:13;98185.00;;;13.60
20092;BMP180;10205;49.678;6.560;2024-02-26T12:11:42;98184.00;;;13.60
20092;BMP180;10205;49.678;6.560;2024-02-26T12:14:09;98195.00;;;13.70
20092;BMP180;10205;49.678;6.560;2024-02-26T12:16:39;98191.00;;;13.70
20092;BMP180;10205;49.678;6.560;2024-02-26T12:19:09;98185.00;;;13.70
20092;BMP180;10205;49.678;6.560;2024-02-26T12:21:37;98194.00;;;13.80
20092;BMP180;10205;49.678;6.560;2024-02-26T12:24:11;98192.00;;;13.90
20092;BMP180;10205;49.678;6.560;2024-02-26T12:26:39;98198.00;;;13.90
20092;BMP180;10205;49.678;6.560;2024-02-26T12:29:07;98200.00;;;13.90
20092;BMP180;10205;49.678;6.560;2024-02-26T12:31:35;98208.00;;;13.90
20092;BMP180;10205;49.678;6.560;2024-02-26T12:34:06;98211.00;;;13.90
20092;BMP180;10205;49.678;6.560;2024-02-26T12:36:35;98210.00;;;13.90
20092;BMP180;10205;49.678;6.560;2024-02-26T12:39:03;98215.00;;;14.00
20092;BMP180;10205;49.678;6.560;2024-02-26T12:41:32;98219.00;;;14.00
20092;BMP180;10205;49.678;6.560;2024-02-26T12:43:59;98218.00;;;14.00
20092;BMP180;10205;49.678;6.560;2024-02-26T12:46:26;98220.00;;;14.10
20092;BMP180;10205;49.678;6.560;2024-02-26T12:48:56;98224.00;;;14.10
20092;BMP180;10205;49.678;6.560;2024-02-26T12:51:26;98239.00;;;14.10
20092;BMP180;10205;49.678;6.560;2024-02-26T12:53:55;98234.00;;;14.10
20092;BMP180;10205;49.678;6.560;2024-02-26T12:56:24;98237.00;;;14.20
20092;BMP180;10205;49.678;6.560;2024-02-26T12:58:53;98239.00;;;14.20
20092;BMP180;10205;49.678;6.560;2024-02-26T13:01:24;98237.00;;;14.20
20092;BMP180;10205;49.678;6.560;2024-02-26T13:03:52;98243.00;;;14.20
20092;BMP180;10205;49.678;6.560;2024-02-26T13:06:20;98243.00;;;14.30
20092;BMP180;10205;49.678;6.560;2024-02-26T13:08:55;98244.00;;;14.30
20092;BMP180;10205;49.678;6.560;2024-02-26T13:11:24;98243.00;;;14.30
20092;BMP180;10205;49.678;6.560;2024-02-26T13:13:51;98238.00;;;14.30
20092;BMP180;10205;49.678;6.560;2024-02-26T13:16:18;98239.00;;;14.30
20092;BMP180;10205;49.678;6.560;2024-02-26T13:18:45;98241.00;;;14.30
20092;BMP180;10205;49.678;6.560;2024-02-26T13:21:13;98241.00;;;14.30
20092;BMP180;10205;49.678;6.560;2024-02-26T13:23:42;98252.00;;;14.30
20092;BMP180;10205;49.678;6.560;2024-02-26T13:26:13;98246.00;;;14.30
20092;BMP180;10205;49.678;6.560;2024-02-26T13:28:41;98244.00;;;14.30
20092;BMP180;10205;49.678;6.560;2024-02-26T13:31:08;98251.00;;;14.30
20092;BMP180;10205;49.678;6.560;2024-02-26T13:33:35;98263.00;;;14.30
20092;BMP180;10205;49.678;6.560;2024-02-26T13:36:04;98260.00;;;14.30
20092;BMP180;10205;49.678;6.560;2024-02-26T13:38:31;98254.00;;;14.30
20092;BMP180;10205;49.678;6.560;2024-02-26T13:40:59;98248.00;;;14.40
20092;BMP180;10205;49.678;6.560;2024-02-26T13:43:28;98256.00;;;14.40
20092;BMP180;10205;49.678;6.560;2024-02-26T13:45:55;98259.00;;;14.40
20092;BMP180;10205;49.678;6.560;2024-02-26T13:48:22;98269.00;;;14.40
20092;BMP180;10205;49.678;6.560;2024-02-26T13:50:49;98261.00;;;14.40
20092;BMP180;10205;49.678;6.560;2024-02-26T13:53:16;98270.00;;;14.50
20092;BMP180;10205;49.678;6.560;2024-02-26T13:55:43;98274.00;;;14.50
20092;BMP180;10205;49.678;6.560;2024-02-26T13:58:13;98279.00;;;14.50
20092;BMP180;10205;49.678;6.560;2024-02-26T14:00:41;98280.00;;;14.50
20092;BMP180;10205;49.678;6.560;2024-02-26T14:03:08;98294.00;;;14.50
20092;BMP180;10205;49.678;6.560;2024-02-26T14:05:36;98290.00;;;14.50
20092;BMP180;10205;49.678;6.560;2024-02-26T14:08:03;98302.00;;;14.40
20092;BMP180;10205;49.678;6.560;2024-02-26T14:10:31;98302.00;;;14.50
20092;BMP180;10205;49.678;6.560;2024-02-26T14:12:58;98303.00;;;14.50